sensor_id;sensor_type;location;lat;lon;timestamp;temperature;humidity
26537;DHT22;14204;51.262;5.488;2023-03-23T00:01:09;13.50;99.90
26537;DHT22;14204;51.262;5.488;2023-03-23T00:03:45;13.50;99.90
26537;DHT22;14204;51.262;5.488;2023-03-23T00:06:12;13.50;99.90
26537;DHT22;14204;51.262;5.488;2023-03-23T00:08:46;13.60;99.90
26537;DHT22;14204;51.262;5.488;2023-03-23T00:11:17;13.50;99.90
26537;DHT22;14204;51.262;5.488;2023-03-23T00:13:47;13.60;99.90
26537;DHT22;14204;51.262;5.488;2023-03-23T00:16:16;13.60;99.90
26537;DHT22;14204;51.262;5.488;2023-03-23T00:18:48;13.60;99.90
26537;DHT22;14204;51.262;5.488;2023-03-23T00:21:21;13.70;99.90
26537;DHT22;14204;51.262;5.488;2023-03-23T00:23:53;13.70;99.90
26537;DHT22;14204;51.262;5.488;2023-03-23T00:26:19;13.60;99.90
26537;DHT22;14204;51.262;5.488;2023-03-23T00:28:45;13.60;99.90
26537;DHT22;14204;51.262;5.488;2023-03-23T00:31:12;13.60;99.90
26537;DHT22;14204;51.262;5.488;2023-03-23T00:33:40;13.60;99.90
26537;DHT22;14204;51.262;5.488;2023-03-23T00:36:10;13.50;99.90
26537;DHT22;14204;51.262;5.488;2023-03-23T00:38:36;13.60;99.90
26537;DHT22;14204;51.262;5.488;2023-03-23T00:41:03;13.60;99.90
26537;DHT22;14204;51.262;5.488;2023-03-23T00:43:30;13.60;99.90
26537;DHT22;14204;51.262;5.488;2023-03-23T00:45:57;13.60;99.90
26537;DHT22;14204;51.262;5.488;2023-03-23T00:48:28;13.60;99.90
26537;DHT22;14204;51.262;5.488;2023-03-23T00:50:55;13.60;99.90
26537;DHT22;14204;51.262;5.488;2023-03-23T00:53:21;13.60;99.90
26537;DHT22;14204;51.262;5.488;2023-03-23T00:55:48;13.60;99.90
26537;DHT22;14204;51.262;5.488;2023-03-23T00:58:15;13.70;99.90
26537;DHT22;14204;51.262;5.488;2023-03-23T01:00:41;13.70;99.90
26537;DHT22;14204;51.262;5.488;2023-03-23T01:03:08;13.60;99.90
26537;DHT22;14204;51.262;5.488;2023-03-23T01:05:39;13.70;99.90
26537;DHT22;14204;51.262;5.488;2023-03-23T01:08:06;13.70;99.90
26537;DHT22;14204;51.262;5.488;2023-03-23T01:10:33;13.70;99.90
26537;DHT22;14204;51.262;5.488;2023-03-23T01:13:01;13.60;99.90
26537;DHT22;14204;51.262;5.488;2023-03-23T01:15:28;13.70;99.90
26537;DHT22;14204;51.262;5.488;2023-03-23T01:17:55;13.70;99.90
26537;DHT22;14204;51.262;5.488;2023-03-23T01:20:21;13.70;99.90
26537;DHT22;14204;51.262;5.488;2023-03-23T01:22:46;13.70;99.90
26537;DHT22;14204;51.262;5.488;2023-03-23T01:25:13;13.70;99.90
26537;DHT22;14204;51.262;5.488;2023-03-23T01:27:40;13.70;99.90
26537;DHT22;14204;51.262;5.488;2023-03-23T01:30:08;13.70;99.90
26537;DHT22;14204;51.262;5.488;2023-03-23T01:32:36;13.80;99.90
26537;DHT22;14204;51.262;5.488;2023-03-23T01:35:01;13.70;99.90
26537;DHT22;14204;51.262;5.488;2023-03-23T01:37:27;13.70;99.90
26537;DHT22;14204;51.262;5.488;2023-03-23T01:39:53;13.70;99.90
26537;DHT22;14204;51.262;5.488;2023-03-23T01:42:29;13.70;99.90
26537;DHT22;14204;51.262;5.488;2023-03-23T01:45:37;13.70;99.90
26537;DHT22;14204;51.262;5.488;2023-03-23T01:50:30;13.60;99.90
26537;DHT22;14204;51.262;5.488;2023-03-23T01:53:00;13.70;99.90
26537;DHT22;14204;51.262;5.488;2023-03-23T01:55:27;13.70;99.90
26537;DHT22;14204;51.262;5.488;2023-03-23T01:57:55;13.70;99.90
26537;DHT22;14204;51.262;5.488;2023-03-23T02:00:21;13.60;99.90
26537;DHT22;14204;51.262;5.488;2023-03-23T02:02:49;13.60;99.90
26537;DHT22;14204;51.262;5.488;2023-03-23T02:05:26;13.60;99.90
26537;DHT22;14204;51.262;5.488;2023-03-23T02:07:54;13.60;99.90
26537;DHT22;14204;51.262;5.488;2023-03-23T02:10:24;13.70;99.90
26537;DHT22;14204;51.262;5.488;2023-03-23T02:12:50;13.70;99.90
26537;DHT22;14204;51.262;5.488;2023-03-23T02:15:16;13.60;99.90
26537;DHT22;14204;51.262;5.488;2023-03-23T02:18:02;13.70;99.90
26537;DHT22;14204;51.262;5.488;2023-03-23T02:23:38;13.70;99.90
26537;DHT22;14204;51.262;5.488;2023-03-23T02:34:31;13.70;99.90
26537;DHT22;14204;51.262;5.488;2023-03-23T02:37:07;13.70;99.90
26537;DHT22;14204;51.262;5.488;2023-03-23T02:42:06;13.70;99.90
26537;DHT22;14204;51.262;5.488;2023-03-23T02:44:35;13.70;99.90
26537;DHT22;14204;51.262;5.488;2023-03-23T02:47:05;13.80;99.90
26537;DHT22;14204;51.262;5.488;2023-03-23T02:49:34;13.70;99.90
26537;DHT22;14204;51.262;5.488;2023-03-23T02:52:10;13.80;99.90
26537;DHT22;14204;51.262;5.488;2023-03-23T02:54:41;13.80;99.90
26537;DHT22;14204;51.262;5.488;2023-03-23T02:57:08;13.80;99.90
26537;DHT22;14204;51.262;5.488;2023-03-23T02:59:34;13.70;99.90
26537;DHT22;14204;51.262;5.488;2023-03-23T03:02:35;13.70;99.90
26537;DHT22;14204;51.262;5.488;2023-03-23T03:21:01;13.70;99.90
26537;DHT22;14204;51.262;5.488;2023-03-23T03:23:28;13.70;99.90
26537;DHT22;14204;51.262;5.488;2023-03-23T03:25:55;13.70;99.90
26537;DHT22;14204;51.262;5.488;2023-03-23T03:28:24;13.70;99.90
26537;DHT22;14204;51.262;5.488;2023-03-23T03:30:56;13.70;99.90
26537;DHT22;14204;51.262;5.488;2023-03-23T03:33:28;13.70;99.90
26537;DHT22;14204;51.262;5.488;2023-03-23T03:35:58;13.60;99.90
26537;DHT22;14204;51.262;5.488;2023-03-23T03:38:25;13.70;99.90
26537;DHT22;14204;51.262;5.488;2023-03-23T03:40:51;13.70;99.90
26537;DHT22;14204;51.262;5.488;2023-03-23T03:43:17;13.70;99.90
26537;DHT22;14204;51.262;5.488;2023-03-23T03:45:43;13.70;99.90
26537;DHT22;14204;51.262;5.488;2023-03-23T03:48:10;13.70;99.90
26537;DHT22;14204;51.262;5.488;2023-03-23T03:50:36;13.70;99.90
26537;DHT22;14204;51.262;5.488;2023-03-23T03:53:01;13.70;99.90
26537;DHT22;14204;51.262;5.488;2023-03-23T03:55:28;13.70;99.90
26537;DHT22;14204;51.262;5.488;2023-03-23T03:57:55;13.70;99.90
26537;DHT22;14204;51.262;5.488;2023-03-23T04:00:21;13.70;99.90
26537;DHT22;14204;51.262;5.488;2023-03-23T04:02:49;13.70;99.90
26537;DHT22;14204;51.262;5.488;2023-03-23T04:05:21;13.70;99.90
26537;DHT22;14204;51.262;5.488;2023-03-23T04:07:46;13.70;99.90
26537;DHT22;14204;51.262;5.488;2023-03-23T04:10:15;13.70;99.90
26537;DHT22;14204;51.262;5.488;2023-03-23T04:12:40;13.70;99.90
26537;DHT22;14204;51.262;5.488;2023-03-23T04:15:08;13.70;99.90
26537;DHT22;14204;51.262;5.488;2023-03-23T04:17:34;13.70;99.90
26537;DHT22;14204;51.262;5.488;2023-03-23T04:20:01;13.80;99.90
26537;DHT22;14204;51.262;5.488;2023-03-23T04:22:31;13.70;99.90
26537;DHT22;14204;51.262;5.488;2023-03-23T04:24:59;13.80;99.90
26537;DHT22;14204;51.262;5.488;2023-03-23T04:27:27;13.70;99.90
26537;DHT22;14204;51.262;5.488;2023-03-23T04:29:55;13.70;99.90
26537;DHT22;14204;51.262;5.488;2023-03-23T04:32:24;13.80;99.90
26537;DHT22;14204;51.262;5.488;2023-03-23T04:34:50;13.80;99.90
26537;DHT22;14204;51.262;5.488;2023-03-23T04:37:16;13.80;99.90
26537;DHT22;14204;51.262;5.488;2023-03-23T04:39:41;13.70;99.90
26537;DHT22;14204;51.262;5.488;2023-03-23T04:42:10;13.70;99.90
26537;DHT22;14204;51.262;5.488;2023-03-23T04:44:36;13.80;99.90
26537;DHT22;14204;51.262;5.488;2023-03-23T04:47:02;13.70;99.90
26537;DHT22;14204;51.262;5.488;2023-03-23T04:49:28;13.80;99.90
26537;DHT22;14204;51.262;5.488;2023-03-23T04:51:55;13.70;99.90
26537;DHT22;14204;51.262;5.488;2023-03-23T04:54:22;13.80;99.90
26537;DHT22;14204;51.262;5.488;2023-03-23T04:56:48;13.80;99.90
26537;DHT22;14204;51.262;5.488;2023-03-23T04:59:13;13.80;99.90
26537;DHT22;14204;51.262;5.488;2023-03-23T05:01:40;13.80;99.90
26537;DHT22;14204;51.262;5.488;2023-03-23T05:04:11;13.80;99.90
26537;DHT22;14204;51.262;5.488;2023-03-23T05:06:42;13.90;99.90
26537;DHT22;14204;51.262;5.488;2023-03-23T05:09:09;13.80;99.90
26537;DHT22;14204;51.262;5.488;2023-03-23T05:11:35;13.80;99.90
26537;DHT22;14204;51.262;5.488;2023-03-23T05:14:03;13.80;99.90
26537;DHT22;14204;51.262;5.488;2023-03-23T05:16:29;13.80;99.90
26537;DHT22;14204;51.262;5.488;2023-03-23T05:18:55;13.80;99.90
26537;DHT22;14204;51.262;5.488;2023-03-23T05:21:23;13.70;99.90
26537;DHT22;14204;51.262;5.488;2023-03-23T05:23:48;13.70;99.90
26537;DHT22;14204;51.262;5.488;2023-03-23T05:26:20;13.70;99.90
26537;DHT22;14204;51.262;5.488;2023-03-23T05:28:46;13.70;99.90
26537;DHT22;14204;51.262;5.488;2023-03-23T05:31:13;13.70;99.90
26537;DHT22;14204;51.262;5.488;2023-03-23T05:33:39;13.70;99.90
26537;DHT22;14204;51.262;5.488;2023-03-23T05:36:05;13.70;99.90
26537;DHT22;14204;51.262;5.488;2023-03-23T05:38:32;13.60;99.90
26537;DHT22;14204;51.262;5.488;2023-03-23T05:41:00;13.70;99.90
26537;DHT22;14204;51.262;5.488;2023-03-23T05:43:30;13.60;99.90
26537;DHT22;14204;51.262;5.488;2023-03-23T05:45:55;13.70;99.90
26537;DHT22;14204;51.262;5.488;2023-03-23T05:48:21;13.70;99.90
26537;DHT22;14204;51.262;5.488;2023-03-23T05:50:47;13.60;99.90
26537;DHT22;14204;51.262;5.488;2023-03-23T05:53:12;13.60;99.90
26537;DHT22;14204;51.262;5.488;2023-03-23T05:55:38;13.60;99.90
26537;DHT22;14204;51.262;5.488;2023-03-23T05:58:04;13.60;99.90
26537;DHT22;14204;51.262;5.488;2023-03-23T06:00:29;13.50;99.90
26537;DHT22;14204;51.262;5.488;2023-03-23T06:02:56;13.60;99.90
26537;DHT22;14204;51.262;5.488;2023-03-23T06:05:22;13.50;99.90
26537;DHT22;14204;51.262;5.488;2023-03-23T06:07:49;13.60;99.90
26537;DHT22;14204;51.262;5.488;2023-03-23T06:10:15;13.60;99.90
26537;DHT22;14204;51.262;5.488;2023-03-23T06:12:41;13.60;99.90
26537;DHT22;14204;51.262;5.488;2023-03-23T06:15:09;13.60;99.90
26537;DHT22;14204;51.262;5.488;2023-03-23T06:17:35;13.60;99.90
26537;DHT22;14204;51.262;5.488;2023-03-23T06:20:03;13.60;99.90
26537;DHT22;14204;51.262;5.488;2023-03-23T06:22:30;13.60;99.90
26537;DHT22;14204;51.262;5.488;2023-03-23T06:24:55;13.60;99.90
26537;DHT22;14204;51.262;5.488;2023-03-23T06:27:23;13.60;99.90
26537;DHT22;14204;51.262;5.488;2023-03-23T06:29:49;13.70;99.90
26537;DHT22;14204;51.262;5.488;2023-03-23T06:32:15;13.70;99.90
26537;DHT22;14204;51.262;5.488;2023-03-23T06:34:41;13.70;99.90
26537;DHT22;14204;51.262;5.488;2023-03-23T06:37:09;13.80;99.90
26537;DHT22;14204;51.262;5.488;2023-03-23T06:39:34;13.70;99.90
26537;DHT22;14204;51.262;5.488;2023-03-23T06:42:02;13.70;99.90
26537;DHT22;14204;51.262;5.488;2023-03-23T06:44:29;13.70;99.90
26537;DHT22;14204;51.262;5.488;2023-03-23T06:46:54;13.60;99.90
26537;DHT22;14204;51.262;5.488;2023-03-23T06:49:20;13.70;99.90
26537;DHT22;14204;51.262;5.488;2023-03-23T06:51:46;13.70;99.90
26537;DHT22;14204;51.262;5.488;2023-03-23T06:54:11;13.70;99.90
26537;DHT22;14204;51.262;5.488;2023-03-23T06:56:37;13.70;99.90
26537;DHT22;14204;51.262;5.488;2023-03-23T06:59:03;13.70;99.90
26537;DHT22;14204;51.262;5.488;2023-03-23T07:01:29;13.80;99.90
26537;DHT22;14204;51.262;5.488;2023-03-23T07:03:55;13.70;99.90
26537;DHT22;14204;51.262;5.488;2023-03-23T07:06:24;13.80;99.90
26537;DHT22;14204;51.262;5.488;2023-03-23T07:08:50;13.80;99.90
26537;DHT22;14204;51.262;5.488;2023-03-23T07:11:16;13.70;99.90
26537;DHT22;14204;51.262;5.488;2023-03-23T07:13:41;13.70;99.90
26537;DHT22;14204;51.262;5.488;2023-03-23T07:16:08;13.80;99.90
26537;DHT22;14204;51.262;5.488;2023-03-23T07:18:34;13.80;99.90
26537;DHT22;14204;51.262;5.488;2023-03-23T07:21:00;13.80;99.90
26537;DHT22;14204;51.262;5.488;2023-03-23T07:23:26;13.80;99.90
26537;DHT22;14204;51.262;5.488;2023-03-23T07:25:51;13.90;99.90
26537;DHT22;14204;51.262;5.488;2023-03-23T07:28:19;13.80;99.90
26537;DHT22;14204;51.262;5.488;2023-03-23T07:30:44;13.80;99.90
26537;DHT22;14204;51.262;5.488;2023-03-23T07:33:12;13.80;99.90
26537;DHT22;14204;51.262;5.488;2023-03-23T07:35:38;13.80;99.90
26537;DHT22;14204;51.262;5.488;2023-03-23T07:38:05;13.90;99.90
26537;DHT22;14204;51.262;5.488;2023-03-23T07:40:31;13.90;99.90
26537;DHT22;14204;51.262;5.488;2023-03-23T07:43:02;13.90;99.90
26537;DHT22;14204;51.262;5.488;2023-03-23T07:45:28;14.00;99.90
26537;DHT22;14204;51.262;5.488;2023-03-23T07:47:54;13.90;99.90
26537;DHT22;14204;51.262;5.488;2023-03-23T07:50:20;13.90;99.90
26537;DHT22;14204;51.262;5.488;2023-03-23T07:52:59;13.90;99.90
26537;DHT22;14204;51.262;5.488;2023-03-23T07:55:25;13.80;99.90
26537;DHT22;14204;51.262;5.488;2023-03-23T07:57:53;13.80;99.90
26537;DHT22;14204;51.262;5.488;2023-03-23T08:00:20;13.70;99.90
26537;DHT22;14204;51.262;5.488;2023-03-23T08:02:52;13.70;99.90
26537;DHT22;14204;51.262;5.488;2023-03-23T08:05:19;13.70;99.90
26537;DHT22;14204;51.262;5.488;2023-03-23T08:07:46;13.80;99.90
26537;DHT22;14204;51.262;5.488;2023-03-23T08:10:13;13.70;99.90
26537;DHT22;14204;51.262;5.488;2023-03-23T08:12:41;13.70;99.90
26537;DHT22;14204;51.262;5.488;2023-03-23T08:15:08;13.60;99.90
26537;DHT22;14204;51.262;5.488;2023-03-23T08:17:35;13.50;99.90
26537;DHT22;14204;51.262;5.488;2023-03-23T08:20:02;13.40;99.90
26537;DHT22;14204;51.262;5.488;2023-03-23T08:22:34;13.10;99.90
26537;DHT22;14204;51.262;5.488;2023-03-23T08:25:02;13.10;99.90
26537;DHT22;14204;51.262;5.488;2023-03-23T08:27:29;13.00;99.90
26537;DHT22;14204;51.262;5.488;2023-03-23T08:29:54;12.90;99.90
26537;DHT22;14204;51.262;5.488;2023-03-23T08:32:20;12.90;99.90
26537;DHT22;14204;51.262;5.488;2023-03-23T08:34:46;12.80;99.90
26537;DHT22;14204;51.262;5.488;2023-03-23T08:37:11;12.80;99.90
26537;DHT22;14204;51.262;5.488;2023-03-23T08:39:37;12.90;99.90
26537;DHT22;14204;51.262;5.488;2023-03-23T08:42:03;12.80;99.90
26537;DHT22;14204;51.262;5.488;2023-03-23T08:44:29;12.80;99.90
26537;DHT22;14204;51.262;5.488;2023-03-23T08:46:55;12.90;99.90
26537;DHT22;14204;51.262;5.488;2023-03-23T08:49:23;12.90;99.90
26537;DHT22;14204;51.262;5.488;2023-03-23T08:51:49;13.00;99.90
26537;DHT22;14204;51.262;5.488;2023-03-23T08:54:15;13.00;99.90
26537;DHT22;14204;51.262;5.488;2023-03-23T08:56:42;12.90;99.90
26537;DHT22;14204;51.262;5.488;2023-03-23T08:59:08;13.00;99.90
26537;DHT22;14204;51.262;5.488;2023-03-23T09:01:34;13.00;99.90
26537;DHT22;14204;51.262;5.488;2023-03-23T09:04:00;13.00;99.90
26537;DHT22;14204;51.262;5.488;2023-03-23T09:06:26;13.00;99.90
26537;DHT22;14204;51.262;5.488;2023-03-23T09:08:53;13.00;99.90
26537;DHT22;14204;51.262;5.488;2023-03-23T09:11:21;13.20;99.90
26537;DHT22;14204;51.262;5.488;2023-03-23T09:13:47;13.20;99.90
26537;DHT22;14204;51.262;5.488;2023-03-23T09:16:13;13.20;99.90
26537;DHT22;14204;51.262;5.488;2023-03-23T09:18:39;13.20;99.90
26537;DHT22;14204;51.262;5.488;2023-03-23T09:21:06;13.20;99.90
26537;DHT22;14204;51.262;5.488;2023-03-23T09:23:33;13.20;99.90
26537;DHT22;14204;51.262;5.488;2023-03-23T09:26:02;13.30;99.90
26537;DHT22;14204;51.262;5.488;2023-03-23T09:28:28;13.30;99.90
26537;DHT22;14204;51.262;5.488;2023-03-23T09:30:55;13.30;99.90
26537;DHT22;14204;51.262;5.488;2023-03-23T09:33:23;13.40;99.90
26537;DHT22;14204;51.262;5.488;2023-03-23T09:35:49;13.30;99.90
26537;DHT22;14204;51.262;5.488;2023-03-23T09:38:15;13.20;99.90
26537;DHT22;14204;51.262;5.488;2023-03-23T09:40:58;13.20;99.90
26537;DHT22;14204;51.262;5.488;2023-03-23T09:46:50;13.20;99.90
26537;DHT22;14204;51.262;5.488;2023-03-23T09:49:28;13.30;99.90
26537;DHT22;14204;51.262;5.488;2023-03-23T09:52:00;13.60;99.90
26537;DHT22;14204;51.262;5.488;2023-03-23T09:54:33;14.00;99.90
26537;DHT22;14204;51.262;5.488;2023-03-23T09:57:00;14.20;99.90
26537;DHT22;14204;51.262;5.488;2023-03-23T10:00:09;14.20;99.90
26537;DHT22;14204;51.262;5.488;2023-03-23T10:02:41;14.20;99.90
26537;DHT22;14204;51.262;5.488;2023-03-23T10:08:18;14.10;99.90
26537;DHT22;14204;51.262;5.488;2023-03-23T10:16:15;13.90;99.90
26537;DHT22;14204;51.262;5.488;2023-03-23T10:21:22;13.90;99.90
26537;DHT22;14204;51.262;5.488;2023-03-23T10:24:02;14.00;99.90
26537;DHT22;14204;51.262;5.488;2023-03-23T10:29:30;14.10;99.90
26537;DHT22;14204;51.262;5.488;2023-03-23T10:32:11;14.20;99.90
26537;DHT22;14204;51.262;5.488;2023-03-23T10:34:55;14.20;99.90
26537;DHT22;14204;51.262;5.488;2023-03-23T10:37:27;14.30;99.90
26537;DHT22;14204;51.262;5.488;2023-03-23T10:39:57;14.40;99.90
26537;DHT22;14204;51.262;5.488;2023-03-23T10:42:28;14.40;99.90
26537;DHT22;14204;51.262;5.488;2023-03-23T10:44:56;14.40;99.90
26537;DHT22;14204;51.262;5.488;2023-03-23T10:47:22;14.50;99.90
26537;DHT22;14204;51.262;5.488;2023-03-23T10:49:54;14.70;99.90
26537;DHT22;14204;51.262;5.488;2023-03-23T10:52:40;15.00;99.90
26537;DHT22;14204;51.262;5.488;2023-03-23T10:55:11;15.10;99.90
26537;DHT22;14204;51.262;5.488;2023-03-23T10:57:40;15.20;99.90
26537;DHT22;14204;51.262;5.488;2023-03-23T11:00:23;15.30;99.90
26537;DHT22;14204;51.262;5.488;2023-03-23T11:05:37;15.40;99.90
26537;DHT22;14204;51.262;5.488;2023-03-23T11:08:11;15.40;99.90
26537;DHT22;14204;51.262;5.488;2023-03-23T11:10:46;15.50;99.90
26537;DHT22;14204;51.262;5.488;2023-03-23T11:13:15;15.40;99.90
26537;DHT22;14204;51.262;5.488;2023-03-23T11:15:42;15.50;99.90
26537;DHT22;14204;51.262;5.488;2023-03-23T11:18:12;15.50;99.90
26537;DHT22;14204;51.262;5.488;2023-03-23T11:20:43;15.60;99.90
26537;DHT22;14204;51.262;5.488;2023-03-23T11:23:22;15.50;99.90
26537;DHT22;14204;51.262;5.488;2023-03-23T11:28:58;15.50;99.90
26537;DHT22;14204;51.262;5.488;2023-03-23T11:31:49;15.40;99.90
26537;DHT22;14204;51.262;5.488;2023-03-23T11:34:21;15.40;99.90
26537;DHT22;14204;51.262;5.488;2023-03-23T11:37:10;15.50;99.90
26537;DHT22;14204;51.262;5.488;2023-03-23T11:39:57;15.50;99.90
26537;DHT22;14204;51.262;5.488;2023-03-23T11:47:57;15.80;99.90
26537;DHT22;14204;51.262;5.488;2023-03-23T11:50:31;15.90;99.90
26537;DHT22;14204;51.262;5.488;2023-03-23T11:55:49;16.00;99.90
26537;DHT22;14204;51.262;5.488;2023-03-23T11:58:20;15.70;99.90
26537;DHT22;14204;51.262;5.488;2023-03-23T12:00:58;15.70;99.90
26537;DHT22;14204;51.262;5.488;2023-03-23T12:07:13;15.70;99.90
26537;DHT22;14204;51.262;5.488;2023-03-23T12:09:47;15.70;99.90
26537;DHT22;14204;51.262;5.488;2023-03-23T12:12:35;15.80;99.90
26537;DHT22;14204;51.262;5.488;2023-03-23T12:20:47;16.20;99.90
26537;DHT22;14204;51.262;5.488;2023-03-23T12:23:25;16.50;99.90
26537;DHT22;14204;51.262;5.488;2023-03-23T12:26:24;16.60;99.90
26537;DHT22;14204;51.262;5.488;2023-03-23T12:33:56;16.70;99.90
26537;DHT22;14204;51.262;5.488;2023-03-23T12:44:57;16.70;99.90
26537;DHT22;14204;51.262;5.488;2023-03-23T12:48:04;16.70;99.90
26537;DHT22;14204;51.262;5.488;2023-03-23T12:50:40;16.70;99.90
26537;DHT22;14204;51.262;5.488;2023-03-23T12:53:19;16.80;99.90
26537;DHT22;14204;51.262;5.488;2023-03-23T12:58:38;16.70;99.90
26537;DHT22;14204;51.262;5.488;2023-03-23T13:01:11;16.70;99.90
26537;DHT22;14204;51.262;5.488;2023-03-23T13:11:39;17.10;99.90
26537;DHT22;14204;51.262;5.488;2023-03-23T13:28:19;17.40;99.90
26537;DHT22;14204;51.262;5.488;2023-03-23T13:30:57;17.50;99.90
26537;DHT22;14204;51.262;5.488;2023-03-23T13:33:23;17.60;99.90
26537;DHT22;14204;51.262;5.488;2023-03-23T13:35:50;17.70;99.90
26537;DHT22;14204;51.262;5.488;2023-03-23T13:38:29;17.60;99.90
26537;DHT22;14204;51.262;5.488;2023-03-23T13:40:55;17.60;99.90
26537;DHT22;14204;51.262;5.488;2023-03-23T13:43:30;17.60;99.90
26537;DHT22;14204;51.262;5.488;2023-03-23T13:46:12;17.70;99.90
26537;DHT22;14204;51.262;5.488;2023-03-23T13:49:03;17.70;99.90
26537;DHT22;14204;51.262;5.488;2023-03-23T13:51:33;17.70;99.90
26537;DHT22;14204;51.262;5.488;2023-03-23T13:56:59;17.60;99.90
26537;DHT22;14204;51.262;5.488;2023-03-23T14:01:57;17.70;99.90
26537;DHT22;14204;51.262;5.488;2023-03-23T14:04:39;17.70;99.90
26537;DHT22;14204;51.262;5.488;2023-03-23T14:07:11;17.70;99.90
26537;DHT22;14204;51.262;5.488;2023-03-23T14:09:40;17.70;99.90
26537;DHT22;14204;51.262;5.488;2023-03-23T14:12:17;17.70;99.90
26537;DHT22;14204;51.262;5.488;2023-03-23T14:14:57;17.70;99.90
26537;DHT22;14204;51.262;5.488;2023-03-23T14:17:29;17.50;99.90
26537;DHT22;14204;51.262;5.488;2023-03-23T14:19:57;17.40;99.90
26537;DHT22;14204;51.262;5.488;2023-03-23T14:22:32;17.40;99.90
26537;DHT22;14204;51.262;5.488;2023-03-23T14:25:13;17.50;99.90
26537;DHT22;14204;51.262;5.488;2023-03-23T14:27:40;17.60;99.90
26537;DHT22;14204;51.262;5.488;2023-03-23T14:30:12;17.60;99.90
26537;DHT22;14204;51.262;5.488;2023-03-23T14:32:38;17.50;99.90
26537;DHT22;14204;51.262;5.488;2023-03-23T14:35:08;17.50;99.90
26537;DHT22;14204;51.262;5.488;2023-03-23T14:37:38;17.50;99.90
26537;DHT22;14204;51.262;5.488;2023-03-23T14:40:04;17.50;99.90
26537;DHT22;14204;51.262;5.488;2023-03-23T14:42:35;17.40;99.90
26537;DHT22;14204;51.262;5.488;2023-03-23T14:45:04;17.50;99.90
26537;DHT22;14204;51.262;5.488;2023-03-23T14:47:36;17.40;99.90
26537;DHT22;14204;51.262;5.488;2023-03-23T14:50:06;17.50;99.90
26537;DHT22;14204;51.262;5.488;2023-03-23T14:52:36;17.40;99.90
26537;DHT22;14204;51.262;5.488;2023-03-23T14:55:14;17.40;99.90
26537;DHT22;14204;51.262;5.488;2023-03-23T14:57:41;17.50;99.90
26537;DHT22;14204;51.262;5.488;2023-03-23T15:00:21;17.40;99.90
26537;DHT22;14204;51.262;5.488;2023-03-23T15:02:53;17.30;99.90
26537;DHT22;14204;51.262;5.488;2023-03-23T15:05:35;17.30;99.90
26537;DHT22;14204;51.262;5.488;2023-03-23T15:08:05;17.20;99.90
26537;DHT22;14204;51.262;5.488;2023-03-23T15:10:32;17.20;99.90
26537;DHT22;14204;51.262;5.488;2023-03-23T15:12:59;17.20;99.90
26537;DHT22;14204;51.262;5.488;2023-03-23T15:15:28;17.20;99.90
26537;DHT22;14204;51.262;5.488;2023-03-23T15:17:55;17.20;99.90
26537;DHT22;14204;51.262;5.488;2023-03-23T15:20:29;17.20;99.90
26537;DHT22;14204;51.262;5.488;2023-03-23T15:22:56;17.20;99.90
26537;DHT22;14204;51.262;5.488;2023-03-23T15:25:32;17.20;99.90
26537;DHT22;14204;51.262;5.488;2023-03-23T15:28:14;17.20;99.90
26537;DHT22;14204;51.262;5.488;2023-03-23T15:30:52;17.10;99.90
26537;DHT22;14204;51.262;5.488;2023-03-23T15:33:18;17.20;99.90
26537;DHT22;14204;51.262;5.488;2023-03-23T15:35:52;17.10;99.90
26537;DHT22;14204;51.262;5.488;2023-03-23T15:38:25;17.00;99.90
26537;DHT22;14204;51.262;5.488;2023-03-23T15:40:53;16.90;99.90
26537;DHT22;14204;51.262;5.488;2023-03-23T15:43:28;17.00;99.90
26537;DHT22;14204;51.262;5.488;2023-03-23T15:48:26;17.00;99.90
26537;DHT22;14204;51.262;5.488;2023-03-23T15:50:52;16.90;99.90
26537;DHT22;14204;51.262;5.488;2023-03-23T15:53:32;16.90;99.90
26537;DHT22;14204;51.262;5.488;2023-03-23T15:56:01;16.90;99.90
26537;DHT22;14204;51.262;5.488;2023-03-23T15:58:27;16.80;99.90
26537;DHT22;14204;51.262;5.488;2023-03-23T16:00:54;16.80;99.90
26537;DHT22;14204;51.262;5.488;2023-03-23T16:03:23;16.90;99.90
26537;DHT22;14204;51.262;5.488;2023-03-23T16:05:52;16.90;99.90
26537;DHT22;14204;51.262;5.488;2023-03-23T16:08:18;16.80;99.90
26537;DHT22;14204;51.262;5.488;2023-03-23T16:10:44;16.80;99.90
26537;DHT22;14204;51.262;5.488;2023-03-23T16:13:09;16.70;99.90
26537;DHT22;14204;51.262;5.488;2023-03-23T16:15:36;16.60;99.90
26537;DHT22;14204;51.262;5.488;2023-03-23T16:18:01;16.50;99.90
26537;DHT22;14204;51.262;5.488;2023-03-23T16:20:28;16.50;99.90
26537;DHT22;14204;51.262;5.488;2023-03-23T16:22:55;16.50;99.90
26537;DHT22;14204;51.262;5.488;2023-03-23T16:25:21;16.50;99.90
26537;DHT22;14204;51.262;5.488;2023-03-23T16:27:47;16.50;99.90
26537;DHT22;14204;51.262;5.488;2023-03-23T16:30:24;16.40;99.90
26537;DHT22;14204;51.262;5.488;2023-03-23T16:32:51;16.40;99.90
26537;DHT22;14204;51.262;5.488;2023-03-23T16:35:17;16.30;99.90
26537;DHT22;14204;51.262;5.488;2023-03-23T16:37:45;16.40;99.90
26537;DHT22;14204;51.262;5.488;2023-03-23T16:40:12;16.40;99.90
26537;DHT22;14204;51.262;5.488;2023-03-23T16:42:38;16.40;99.90
26537;DHT22;14204;51.262;5.488;2023-03-23T16:45:05;16.50;99.90
26537;DHT22;14204;51.262;5.488;2023-03-23T16:47:31;16.50;99.90
26537;DHT22;14204;51.262;5.488;2023-03-23T16:49:57;16.50;99.90
26537;DHT22;14204;51.262;5.488;2023-03-23T16:52:23;16.50;99.90
26537;DHT22;14204;51.262;5.488;2023-03-23T16:54:48;16.40;99.90
26537;DHT22;14204;51.262;5.488;2023-03-23T16:57:14;16.40;99.90
26537;DHT22;14204;51.262;5.488;2023-03-23T16:59:41;16.40;99.90
26537;DHT22;14204;51.262;5.488;2023-03-23T17:02:09;16.30;99.90
26537;DHT22;14204;51.262;5.488;2023-03-23T17:04:35;16.30;99.90
26537;DHT22;14204;51.262;5.488;2023-03-23T17:07:02;16.30;99.90
26537;DHT22;14204;51.262;5.488;2023-03-23T17:09:28;16.20;99.90
26537;DHT22;14204;51.262;5.488;2023-03-23T17:11:54;16.20;99.90
26537;DHT22;14204;51.262;5.488;2023-03-23T17:14:20;16.10;99.90
26537;DHT22;14204;51.262;5.488;2023-03-23T17:16:46;16.20;99.90
26537;DHT22;14204;51.262;5.488;2023-03-23T17:19:12;16.20;99.90
26537;DHT22;14204;51.262;5.488;2023-03-23T17:21:41;16.10;99.90
26537;DHT22;14204;51.262;5.488;2023-03-23T17:24:08;16.10;99.90
26537;DHT22;14204;51.262;5.488;2023-03-23T17:26:34;16.00;99.90
26537;DHT22;14204;51.262;5.488;2023-03-23T17:29:00;16.00;99.90
26537;DHT22;14204;51.262;5.488;2023-03-23T17:31:26;16.00;99.90
26537;DHT22;14204;51.262;5.488;2023-03-23T17:33:52;15.90;99.90
26537;DHT22;14204;51.262;5.488;2023-03-23T17:36:18;15.90;99.90
26537;DHT22;14204;51.262;5.488;2023-03-23T17:38:44;15.90;99.90
26537;DHT22;14204;51.262;5.488;2023-03-23T17:41:10;15.90;99.90
26537;DHT22;14204;51.262;5.488;2023-03-23T17:43:37;15.80;99.90